Sankoumaru 31 — JD2200 — position and weather

sailwx.info

Track history (hours):
 
Tides and Currents Weather Stations Pressure Air Temp Water Temp Dewpoint Dewpoint Depression Visibility Wind Speed Wind Dir Waves Ship Positions

Sankoumaru 31

Last reported at 2015-Mar-02 16:18 UTC. Time now 2015-Mar-04 15:21 UTC.
Position N 33°43' E 130°00'.

Length 75 m; draft 5 m.

Type: Cargo ship. MMSI: 431501842.

Date/timePositionNaut miles runAvg speedWind from/ knotsBaromVisibWave heightAir tempDewpointWater temp
2015-Mar-02 16:18N 33°43' E 130°00'10 0.2
2015-Feb-28 15:26N 33°38' E 129°51'1212.9
2015-Feb-28 14:33N 33°42' E 130°04'1110.8
2015-Feb-28 13:33N 33°46' E 130°16'2512.4
2015-Feb-28 11:33N 33°58' E 130°42'215 8.9
2015-Feb-27 11:16N 34°37' E 134°58'710.5
2015-Feb-27 10:33N 34°36' E 135°07'1312.9
2015-Feb-27 09:32N 34°40' E 135°23'2 1.8
2015-Feb-27 08:25N 34°42' E 135°24'0 0.0
2015-Feb-27 07:31N 34°42' E 135°24'0 0.0
2015-Feb-27 06:31N 34°42' E 135°24'0 0.0
2015-Feb-27 05:07N 34°42' E 135°24'0 0.0
2015-Feb-27 04:31N 34°42' E 135°24'0 0.0
2015-Feb-27 03:31N 34°42' E 135°24'0 0.0
2015-Feb-27 02:31N 34°42' E 135°24'0 0.0
2015-Feb-27 01:31N 34°42' E 135°24'0 0.0
2015-Feb-27 00:31N 34°42' E 135°24'0 0.0
2015-Feb-26 23:31N 34°42' E 135°24'0 0.0
2015-Feb-26 22:31N 34°42' E 135°24'2 0.1
2015-Feb-25 23:33N 34°40' E 135°22'0 0.0
2015-Feb-25 13:33N 34°40' E 135°22'1110.9
2015-Feb-25 12:33N 34°31' E 135°15'1211.4
2015-Feb-25 11:32N 34°21' E 135°07'1111.2
2015-Feb-25 10:33N 34°11' E 135°03'  
2015-Feb-21 03:33N 35°01' E 139°43'1312.8
2015-Feb-21 02:33N 35°14' E 139°46'1211.8
2015-Feb-21 01:33N 35°26' E 139°44'7 6.2
2015-Feb-21 00:28N 35°30' E 139°50'0 0.1
2015-Feb-20 23:32N 35°30' E 139°50'  
Track history (hours):
 
Tides and Currents Weather Stations Pressure Air Temp Water Temp Dewpoint Dewpoint Depression Visibility Wind Speed Wind Dir Waves Ship Positions

Sankoumaru 31

Last reported at 2015-Mar-02 16:18 UTC. Time now 2015-Mar-04 15:21 UTC.
Position N 33°43' E 130°00'.

Length 75 m; draft 5 m.

Type: Cargo ship. MMSI: 431501842.

Date/timePositionNaut miles runAvg speedWind from/ knotsBaromVisibWave heightAir tempDewpointWater temp
2015-Mar-02 16:18N 33°43' E 130°00'10 0.2
2015-Feb-28 15:26N 33°38' E 129°51'1212.9
2015-Feb-28 14:33N 33°42' E 130°04'1110.8
2015-Feb-28 13:33N 33°46' E 130°16'2512.4
2015-Feb-28 11:33N 33°58' E 130°42'215 8.9
2015-Feb-27 11:16N 34°37' E 134°58'710.5
2015-Feb-27 10:33N 34°36' E 135°07'1312.9
2015-Feb-27 09:32N 34°40' E 135°23'2 1.8
2015-Feb-27 08:25N 34°42' E 135°24'0 0.0
2015-Feb-27 07:31N 34°42' E 135°24'0 0.0
2015-Feb-27 06:31N 34°42' E 135°24'0 0.0
2015-Feb-27 05:07N 34°42' E 135°24'0 0.0
2015-Feb-27 04:31N 34°42' E 135°24'0 0.0
2015-Feb-27 03:31N 34°42' E 135°24'0 0.0
2015-Feb-27 02:31N 34°42' E 135°24'0 0.0
2015-Feb-27 01:31N 34°42' E 135°24'0 0.0
2015-Feb-27 00:31N 34°42' E 135°24'0 0.0
2015-Feb-26 23:31N 34°42' E 135°24'0 0.0
2015-Feb-26 22:31N 34°42' E 135°24'2 0.1
2015-Feb-25 23:33N 34°40' E 135°22'0 0.0
2015-Feb-25 13:33N 34°40' E 135°22'1110.9
2015-Feb-25 12:33N 34°31' E 135°15'1211.4
2015-Feb-25 11:32N 34°21' E 135°07'1111.2
2015-Feb-25 10:33N 34°11' E 135°03'  
2015-Feb-21 03:33N 35°01' E 139°43'1312.8
2015-Feb-21 02:33N 35°14' E 139°46'1211.8
2015-Feb-21 01:33N 35°26' E 139°44'7 6.2
2015-Feb-21 00:28N 35°30' E 139°50'0 0.1
2015-Feb-20 23:32N 35°30' E 139°50'  

Dump ship's entire track history